createdAt,value
2019-01-21T00:00:31.664Z,33.20
2019-01-21T00:04:31.080Z,25.43
2019-01-21T00:08:30.200Z,17.80
2019-01-21T00:12:29.364Z,35.75
2019-01-21T00:16:28.506Z,20.35
2019-01-21T00:20:27.631Z,27.67
2019-01-21T00:24:26.744Z,31.87
2019-01-21T00:28:25.890Z,36.42
2019-01-21T00:32:25.013Z,31.53
2019-01-21T00:36:24.141Z,39.60
2019-01-21T00:40:23.283Z,37.47
2019-01-21T00:44:22.415Z,32.17
2019-01-21T00:48:21.555Z,22.60
2019-01-21T00:52:20.695Z,22.77
2019-01-21T00:56:19.830Z,43.50
2019-01-21T01:00:21.850Z,26.73
2019-01-21T01:04:20.990Z,40.10
2019-01-21T01:08:20.134Z,24.57
2019-01-21T01:12:19.336Z,21.53
2019-01-21T01:16:19.394Z,27.75
2019-01-21T01:20:20.102Z,21.87
2019-01-21T01:24:19.447Z,20.60
2019-01-21T01:28:19.365Z,22.43
2019-01-21T01:32:19.451Z,21.93
2019-01-21T01:36:19.412Z,17.87
2019-01-21T01:40:19.346Z,19.53
2019-01-21T01:44:19.375Z,30.23
2019-01-21T01:48:19.434Z,36.53
2019-01-21T01:52:19.485Z,24.57
2019-01-21T01:56:19.542Z,34.47
2019-01-21T02:00:19.371Z,35.53
2019-01-21T02:04:19.416Z,36.50
2019-01-21T02:08:19.489Z,28.37
2019-01-21T02:12:19.537Z,21.47
2019-01-21T02:16:19.397Z,25.03
2019-01-21T02:20:19.441Z,20.73
2019-01-21T02:24:19.362Z,21.07
2019-01-21T02:28:24.887Z,22.32
2019-01-21T02:32:30.318Z,20.80
2019-01-21T02:36:52.559Z,17.63
2019-01-21T02:41:00.193Z,20.97
2019-01-21T02:45:19.337Z,19.93
2019-01-21T02:49:45.673Z,22.23
2019-01-21T02:53:50.669Z,15.27
2019-01-21T02:58:04.905Z,22.37
2019-01-21T03:02:09.960Z,23.50
2019-01-21T03:06:12.355Z,22.93
2019-01-21T03:10:20.664Z,21.80
2019-01-21T03:14:47.389Z,18.13
2019-01-21T03:18:52.426Z,19.27
2019-01-21T03:23:15.297Z,22.93
2019-01-21T03:27:23.530Z,26.07
2019-01-21T03:31:44.170Z,34.90
2019-01-21T03:36:02.611Z,21.60
2019-01-21T03:40:10.823Z,20.97
2019-01-21T03:44:31.344Z,16.03
2019-01-21T03:48:33.184Z,19.97
2019-01-21T03:52:41.448Z,19.50
2019-01-21T03:56:42.666Z,20.02
2019-01-21T04:00:49.021Z,18.00
2019-01-21T04:05:13.746Z,40.00
2019-01-21T04:09:21.807Z,21.10
2019-01-21T04:13:35.963Z,18.87
2019-01-21T04:17:50.296Z,17.43
2019-01-21T04:22:10.353Z,44.10
2019-01-21T04:26:15.460Z,20.83
2019-01-21T04:30:20.850Z,21.00
2019-01-21T04:34:25.926Z,22.03
2019-01-21T04:38:49.516Z,19.87
2019-01-21T04:43:10.013Z,21.60
2019-01-21T04:47:27.625Z,17.23
2019-01-21T04:51:48.033Z,18.40
2019-01-21T04:56:14.612Z,38.63
2019-01-21T05:00:33.989Z,17.85
2019-01-21T05:05:01.949Z,30.90
2019-01-21T05:09:18.719Z,20.87
2019-01-21T05:13:36.123Z,15.35
2019-01-21T05:18:00.838Z,25.47
2019-01-21T05:22:21.060Z,22.73
2019-01-21T05:26:32.210Z,26.27
2019-01-21T05:30:58.888Z,20.27
2019-01-21T05:35:19.252Z,38.17
2019-01-21T05:39:38.232Z,24.43
2019-01-21T05:44:06.297Z,27.03
2019-01-21T05:48:23.799Z,21.57
2019-01-21T05:52:35.104Z,15.87
2019-01-21T05:56:52.471Z,17.37
2019-01-21T06:01:06.772Z,29.43
2019-01-21T06:05:24.227Z,16.93
2019-01-21T06:09:42.999Z,18.20
2019-01-21T06:14:07.852Z,16.97
2019-01-21T06:18:13.259Z,32.10
2019-01-21T06:22:15.632Z,13.67
2019-01-21T06:26:26.542Z,14.73
2019-01-21T06:31:03.832Z,15.23
2019-01-21T06:35:31.865Z,30.50
2019-01-21T06:39:48.797Z,15.00
2019-01-21T06:44:22.789Z,15.70
2019-01-21T06:48:27.741Z,15.70
2019-01-21T06:52:53.212Z,14.63
2019-01-21T06:57:13.785Z,32.53
2019-01-21T07:01:35.950Z,15.17
2019-01-21T07:05:50.292Z,15.40
2019-01-21T07:10:01.648Z,11.63
2019-01-21T07:14:18.821Z,42.87
2019-01-21T07:18:36.215Z,19.77
2019-01-21T07:22:41.507Z,17.65
2019-01-21T07:26:43.884Z,20.87
2019-01-21T07:31:01.565Z,15.00
2019-01-21T07:35:18.953Z,16.35
2019-01-21T07:39:44.464Z,30.10
2019-01-21T07:43:59.632Z,13.90
2019-01-21T07:48:07.832Z,15.58
2019-01-21T07:52:29.973Z,11.23
2019-01-21T07:56:50.648Z,27.87
2019-01-21T08:00:53.044Z,21.17
2019-01-21T08:05:10.387Z,16.20
2019-01-21T08:09:12.769Z,29.20
2019-01-21T08:13:21.023Z,30.03
2019-01-21T08:17:23.417Z,16.10
2019-01-21T08:21:25.815Z,31.83
2019-01-21T08:25:56.943Z,28.07
2019-01-21T08:30:23.279Z,27.27
2019-01-21T08:34:57.144Z,31.17
2019-01-21T08:39:14.409Z,31.87
2019-01-21T08:43:28.445Z,34.27
2019-01-21T08:47:30.815Z,34.10
2019-01-21T08:51:38.946Z,26.17
2019-01-21T08:55:50.529Z,36.63
2019-01-21T09:00:01.792Z,24.67
2019-01-21T09:04:17.607Z,40.30
2019-01-21T09:08:39.684Z,43.17
2019-01-21T09:12:54.014Z,42.93
2019-01-21T09:16:59.109Z,42.93
2019-01-21T09:21:10.388Z,43.63
2019-01-21T09:25:33.185Z,43.47
2019-01-21T09:30:09.804Z,40.33
2019-01-21T09:34:18.146Z,44.00
2019-01-21T09:38:50.799Z,29.67
2019-01-21T09:42:58.753Z,31.73
2019-01-21T09:46:56.993Z,30.57
2019-01-21T09:50:58.545Z,40.23
2019-01-21T09:54:57.672Z,37.90
2019-01-21T09:58:56.801Z,37.28
2019-01-21T10:02:55.928Z,39.53
2019-01-21T10:07:19.172Z,39.53
2019-01-21T10:11:27.454Z,36.30
2019-01-21T10:15:32.379Z,27.77
2019-01-21T10:19:37.617Z,40.30
2019-01-21T10:23:42.737Z,36.50
2019-01-21T10:27:51.043Z,37.10
2019-01-21T10:32:08.432Z,40.63
2019-01-21T10:36:29.939Z,36.00
2019-01-21T10:40:50.210Z,37.83
2019-01-21T10:44:58.333Z,34.70
2019-01-21T10:49:01.703Z,35.77
2019-01-21T10:53:13.222Z,33.20
2019-01-21T10:57:27.605Z,39.13
2019-01-21T11:01:41.980Z,27.27
2019-01-21T11:05:53.195Z,33.63
2019-01-21T11:09:55.573Z,33.63
2019-01-21T11:14:25.169Z,35.40
2019-01-21T11:18:30.465Z,31.77
2019-01-21T11:22:38.909Z,21.57
2019-01-21T11:26:59.409Z,27.43
2019-01-21T11:31:23.764Z,28.87
2019-01-21T11:35:34.924Z,24.15
2019-01-21T11:39:46.220Z,21.90
2019-01-21T11:43:51.140Z,18.47
2019-01-21T11:48:10.140Z,27.57
2019-01-21T11:52:24.849Z,20.33
2019-01-21T11:56:32.971Z,20.57
2019-01-21T12:00:40.945Z,24.20
2019-01-21T12:04:58.711Z,17.80
2019-01-21T12:09:13.142Z,18.03
2019-01-21T12:13:34.578Z,25.37
2019-01-21T12:18:03.653Z,23.57
2019-01-21T12:22:30.136Z,24.50
2019-01-21T12:26:38.632Z,17.10
2019-01-21T12:30:41.108Z,25.50
2019-01-21T12:34:43.479Z,28.93
2019-01-21T12:39:02.537Z,16.37
2019-01-21T12:43:05.004Z,20.30
2019-01-21T12:47:24.099Z,22.87
2019-01-21T12:51:29.426Z,21.30
2019-01-21T12:55:46.531Z,37.67
2019-01-21T13:00:11.487Z,26.53
2019-01-21T13:04:16.697Z,30.23
2019-01-21T13:08:21.676Z,14.73
2019-01-21T13:12:30.148Z,19.35
2019-01-21T13:16:35.501Z,22.43
2019-01-21T13:20:43.647Z,23.77
2019-01-21T13:24:55.009Z,29.07
2019-01-21T13:29:03.091Z,31.27
2019-01-21T13:33:08.039Z,27.20
2019-01-21T13:37:30.109Z,26.00
2019-01-21T13:41:32.494Z,27.33
2019-01-21T13:45:52.954Z,25.65
2019-01-21T13:49:57.820Z,16.27
2019-01-21T13:54:26.108Z,25.13
2019-01-21T13:58:34.857Z,21.03
2019-01-21T14:02:40.027Z,23.53
2019-01-21T14:06:51.245Z,19.37
2019-01-21T14:10:59.522Z,18.73
2019-01-21T14:15:16.948Z,20.50
2019-01-21T14:19:25.211Z,17.37
2019-01-21T14:23:29.320Z,21.73
2019-01-21T14:27:44.006Z,24.45
2019-01-21T14:31:49.339Z,23.67
2019-01-21T14:36:00.582Z,23.40
2019-01-21T14:40:28.059Z,27.40
2019-01-21T14:44:30.445Z,25.12
2019-01-21T14:48:38.843Z,16.75
2019-01-21T14:52:51.214Z,24.67
2019-01-21T14:56:56.139Z,15.07
2019-01-21T15:01:19.643Z,17.77
2019-01-21T15:05:50.823Z,9.07
2019-01-21T15:10:08.450Z,24.10
2019-01-21T15:14:20.538Z,9.87
2019-01-21T15:18:26.229Z,9.60
2019-01-21T15:22:40.749Z,12.07
2019-01-21T15:26:51.842Z,17.10
2019-01-21T15:31:18.256Z,12.70
2019-01-21T15:35:35.763Z,15.03
2019-01-21T15:39:41.091Z,11.70
2019-01-21T15:43:43.651Z,15.70
2019-01-21T15:47:48.710Z,12.67
2019-01-21T15:51:59.952Z,13.17
2019-01-21T15:56:04.930Z,11.93
2019-01-21T16:00:27.956Z,10.43
2019-01-21T16:04:35.671Z,15.40
2019-01-21T16:08:43.895Z,13.77
2019-01-21T16:12:46.279Z,15.20
2019-01-21T16:17:07.009Z,14.00
2019-01-21T16:21:26.024Z,11.23
2019-01-21T16:25:28.403Z,10.27
2019-01-21T16:29:30.769Z,9.87
2019-01-21T16:33:49.885Z,14.33
2019-01-21T16:37:57.989Z,13.17
2019-01-21T16:42:03.022Z,12.93
2019-01-21T16:46:02.170Z,12.43
2019-01-21T16:50:01.423Z,9.30
2019-01-21T16:54:00.515Z,8.80
2019-01-21T16:57:59.619Z,15.20
2019-01-21T17:01:58.725Z,15.40
2019-01-21T17:05:57.861Z,13.97
2019-01-21T17:09:58.129Z,18.73
2019-01-21T17:13:57.309Z,10.97
2019-01-21T17:17:56.439Z,17.63
2019-01-21T17:21:55.578Z,9.00
2019-01-21T17:25:54.699Z,12.75
2019-01-21T17:29:53.823Z,14.23
2019-01-21T17:43:57.921Z,16.48
2019-01-21T17:47:57.125Z,15.87
2019-01-21T17:51:56.265Z,12.20
2019-01-21T17:55:55.415Z,10.33
2019-01-21T17:59:55.516Z,11.93
2019-01-21T18:03:54.661Z,12.60
2019-01-21T18:07:53.803Z,13.03
2019-01-21T18:11:52.987Z,11.13
2019-01-21T18:15:52.107Z,12.43
2019-01-21T18:19:51.222Z,11.17
2019-01-21T18:23:50.347Z,11.73
2019-01-21T18:27:49.477Z,11.37
2019-01-21T18:31:48.589Z,9.97
2019-01-21T18:35:47.726Z,13.47
2019-01-21T18:39:47.191Z,19.27
2019-01-21T18:43:46.434Z,12.77
2019-01-21T18:47:45.906Z,18.87
2019-01-21T18:51:46.813Z,15.30
2019-01-21T18:55:45.921Z,18.70
2019-01-21T19:05:37.899Z,15.58
2019-01-21T19:09:37.022Z,20.53
2019-01-21T19:13:36.214Z,17.50
2019-01-21T19:17:35.424Z,17.37
2019-01-21T19:21:34.557Z,20.03
2019-01-21T19:25:33.843Z,18.17
2019-01-21T19:29:32.953Z,18.73
2019-01-21T19:33:32.068Z,22.70
2019-01-21T19:37:31.215Z,15.05
2019-01-21T19:41:30.361Z,13.83
2019-01-21T19:45:29.469Z,28.97
2019-01-21T19:49:28.596Z,21.97
2019-01-21T19:54:14.308Z,18.80
2019-01-21T19:58:13.490Z,19.98
2019-01-21T20:06:38.399Z,12.23
2019-01-21T20:10:37.593Z,14.33
2019-01-21T20:14:36.710Z,13.30
2019-01-21T20:18:35.825Z,11.77
2019-01-21T20:22:34.946Z,13.00
2019-01-21T20:26:35.024Z,14.20
2019-01-21T20:30:34.159Z,15.15
2019-01-21T20:34:33.292Z,14.78
2019-01-21T20:38:32.409Z,15.57
2019-01-21T20:42:31.513Z,15.58
2019-01-21T20:46:30.634Z,17.67
2019-01-21T20:50:31.279Z,12.50
2019-01-21T20:54:30.399Z,21.07
2019-01-21T20:58:29.524Z,12.03
2019-01-21T21:02:28.644Z,15.47
2019-01-21T21:06:27.836Z,21.37
2019-01-21T21:10:26.971Z,14.73
2019-01-21T21:14:26.080Z,19.20
2019-01-21T21:18:25.208Z,14.05
2019-01-21T21:22:24.384Z,17.43
2019-01-21T23:05:37.941Z,17.67
2019-01-21T23:14:54.124Z,13.90
2019-01-21T23:18:53.250Z,20.40
2019-01-21T23:22:52.361Z,18.55
2019-01-21T23:26:51.861Z,13.83
2019-01-21T23:30:50.998Z,17.67
2019-01-21T23:34:50.495Z,16.23
2019-01-21T23:38:49.615Z,16.57
2019-01-21T23:42:49.122Z,16.20
2019-01-21T23:46:49.195Z,12.83
2019-01-21T23:50:48.600Z,16.77
2019-01-21T23:54:47.718Z,20.00
2019-01-21T23:58:46.840Z,17.23
